sensor_id;sensor_type;location;lat;lon;timestamp;pressure;altitude;pressure_sealevel;temperature;humidity
19236;BME280;9752;54.270;12.470;2022-11-23T00:03:53;100599.97;;;0.30;100.00
19236;BME280;9752;54.270;12.470;2022-11-23T00:08:54;100610.31;;;0.31;100.00
19236;BME280;9752;54.270;12.470;2022-11-23T00:13:56;100643.81;;;0.34;100.00
19236;BME280;9752;54.270;12.470;2022-11-23T00:19:00;100641.53;;;0.37;100.00
19236;BME280;9752;54.270;12.470;2022-11-23T00:24:02;100633.13;;;0.38;100.00
19236;BME280;9752;54.270;12.470;2022-11-23T00:29:04;100628.78;;;0.37;100.00
19236;BME280;9752;54.270;12.470;2022-11-23T00:34:07;100629.69;;;0.38;100.00
19236;BME280;9752;54.270;12.470;2022-11-23T00:39:09;100623.81;;;0.39;100.00
19236;BME280;9752;54.270;12.470;2022-11-23T00:44:11;100616.59;;;0.44;100.00
19236;BME280;9752;54.270;12.470;2022-11-23T00:49:14;100617.81;;;0.47;100.00
19236;BME280;9752;54.270;12.470;2022-11-23T00:54:16;100622.00;;;0.47;100.00
19236;BME280;9752;54.270;12.470;2022-11-23T00:59:18;100630.72;;;0.49;100.00
19236;BME280;9752;54.270;12.470;2022-11-23T01:04:21;100628.94;;;0.48;100.00
19236;BME280;9752;54.270;12.470;2022-11-23T01:09:23;100629.38;;;0.52;100.00
19236;BME280;9752;54.270;12.470;2022-11-23T01:14:26;100632.53;;;0.50;100.00
19236;BME280;9752;54.270;12.470;2022-11-23T01:19:29;100636.88;;;0.51;100.00
19236;BME280;9752;54.270;12.470;2022-11-23T01:24:30;100627.59;;;0.51;100.00
19236;BME280;9752;54.270;12.470;2022-11-23T01:29:33;100640.63;;;0.54;100.00
19236;BME280;9752;54.270;12.470;2022-11-23T01:34:36;100639.56;;;0.52;100.00
19236;BME280;9752;54.270;12.470;2022-11-23T01:39:38;100640.63;;;0.54;100.00
19236;BME280;9752;54.270;12.470;2022-11-23T01:44:40;100646.63;;;0.55;100.00
19236;BME280;9752;54.270;12.470;2022-11-23T01:49:45;100649.31;;;0.56;100.00
19236;BME280;9752;54.270;12.470;2022-11-23T01:54:50;100653.53;;;0.56;100.00
19236;BME280;9752;54.270;12.470;2022-11-23T01:59:54;100649.31;;;0.56;100.00
19236;BME280;9752;54.270;12.470;2022-11-23T02:04:59;100645.56;;;0.53;100.00
19236;BME280;9752;54.270;12.470;2022-11-23T02:10:02;100659.38;;;0.55;100.00
19236;BME280;9752;54.270;12.470;2022-11-23T02:15:04;100645.88;;;0.56;100.00
19236;BME280;9752;54.270;12.470;2022-11-23T02:20:10;100645.25;;;0.58;100.00
19236;BME280;9752;54.270;12.470;2022-11-23T02:25:18;100650.53;;;0.60;100.00
19236;BME280;9752;54.270;12.470;2022-11-23T02:30:24;100644.97;;;0.64;100.00
19236;BME280;9752;54.270;12.470;2022-11-23T02:35:27;100638.22;;;0.65;100.00
19236;BME280;9752;54.270;12.470;2022-11-23T02:40:31;100644.22;;;0.65;100.00
19236;BME280;9752;54.270;12.470;2022-11-23T02:45:36;100653.22;;;0.62;100.00
19236;BME280;9752;54.270;12.470;2022-11-23T02:50:39;100647.97;;;0.60;100.00
19236;BME280;9752;54.270;12.470;2022-11-23T02:55:41;100649.59;;;0.68;100.00
19236;BME280;9752;54.270;12.470;2022-11-23T03:00:46;100651.09;;;0.66;100.00
19236;BME280;9752;54.270;12.470;2022-11-23T03:05:51;100655.00;;;0.71;100.00
19236;BME280;9752;54.270;12.470;2022-11-23T03:10:52;100664.91;;;0.68;100.00
19236;BME280;9752;54.270;12.470;2022-11-23T03:15:56;100667.03;;;0.72;100.00
19236;BME280;9752;54.270;12.470;2022-11-23T03:21:01;100666.72;;;0.78;100.00
19236;BME280;9752;54.270;12.470;2022-11-23T03:26:03;100666.28;;;0.73;100.00
19236;BME280;9752;54.270;12.470;2022-11-23T03:31:11;100670.19;;;0.78;100.00
19236;BME280;9752;54.270;12.470;2022-11-23T03:36:13;100669.41;;;0.80;100.00
19236;BME280;9752;54.270;12.470;2022-11-23T03:41:18;100677.84;;;0.78;100.00
19236;BME280;9752;54.270;12.470;2022-11-23T03:46:26;100672.13;;;0.81;100.00
19236;BME280;9752;54.270;12.470;2022-11-23T03:51:28;100672.72;;;0.78;100.00
19236;BME280;9752;54.270;12.470;2022-11-23T03:56:29;100666.13;;;0.81;100.00
19236;BME280;9752;54.270;12.470;2022-11-23T04:01:32;100658.00;;;0.85;100.00
19236;BME280;9752;54.270;12.470;2022-11-23T04:06:38;100672.84;;;0.89;100.00
19236;BME280;9752;54.270;12.470;2022-11-23T04:11:53;100669.25;;;0.87;100.00
19236;BME280;9752;54.270;12.470;2022-11-23T04:16:56;100671.97;;;0.80;100.00
19236;BME280;9752;54.270;12.470;2022-11-23T04:21:58;100687.75;;;0.84;100.00
19236;BME280;9752;54.270;12.470;2022-11-23T04:27:03;100681.13;;;0.95;100.00
19236;BME280;9752;54.270;12.470;2022-11-23T04:32:06;100674.63;;;0.98;100.00
19236;BME280;9752;54.270;12.470;2022-11-23T04:37:11;100677.06;;;0.97;100.00
19236;BME280;9752;54.270;12.470;2022-11-23T04:42:14;100683.06;;;0.97;100.00
19236;BME280;9752;54.270;12.470;2022-11-23T04:47:23;100689.38;;;1.01;100.00
19236;BME280;9752;54.270;12.470;2022-11-23T04:52:26;100681.72;;;1.01;100.00
19236;BME280;9752;54.270;12.470;2022-11-23T04:57:28;100690.25;;;1.02;100.00
19236;BME280;9752;54.270;12.470;2022-11-23T05:02:32;100682.44;;;1.00;100.00
19236;BME280;9752;54.270;12.470;2022-11-23T05:07:45;100681.97;;;1.04;100.00
19236;BME280;9752;54.270;12.470;2022-11-23T05:12:46;100675.66;;;1.09;100.00
19236;BME280;9752;54.270;12.470;2022-11-23T05:17:50;100667.84;;;1.08;100.00
19236;BME280;9752;54.270;12.470;2022-11-23T05:22:57;100670.09;;;1.13;100.00
19236;BME280;9752;54.270;12.470;2022-11-23T05:28:00;100666.50;;;1.11;100.00
19236;BME280;9752;54.270;12.470;2022-11-23T05:33:04;100675.97;;;1.12;100.00
19236;BME280;9752;54.270;12.470;2022-11-23T05:38:07;100678.97;;;1.17;100.00
19236;BME280;9752;54.270;12.470;2022-11-23T05:43:09;100678.69;;;1.14;100.00
19236;BME280;9752;54.270;12.470;2022-11-23T05:48:12;100670.25;;;1.15;100.00
19236;BME280;9752;54.270;12.470;2022-11-23T05:53:26;100669.63;;;1.17;100.00
19236;BME280;9752;54.270;12.470;2022-11-23T05:58:39;100661.97;;;1.17;100.00
19236;BME280;9752;54.270;12.470;2022-11-23T06:03:43;100661.97;;;1.17;100.00
19236;BME280;9752;54.270;12.470;2022-11-23T06:08:45;100648.44;;;1.19;100.00
19236;BME280;9752;54.270;12.470;2022-11-23T06:13:49;100653.97;;;1.23;100.00
19236;BME280;9752;54.270;12.470;2022-11-23T06:18:53;100659.72;;;1.21;100.00
19236;BME280;9752;54.270;12.470;2022-11-23T06:23:55;100649.66;;;1.13;100.00
19236;BME280;9752;54.270;12.470;2022-11-23T06:28:58;100668.47;;;1.14;100.00
19236;BME280;9752;54.270;12.470;2022-11-23T06:34:03;100665.28;;;1.16;100.00
19236;BME280;9752;54.270;12.470;2022-11-23T06:39:07;100680.16;;;1.21;100.00
19236;BME280;9752;54.270;12.470;2022-11-23T06:44:09;100693.97;;;1.23;100.00
19236;BME280;9752;54.270;12.470;2022-11-23T06:49:18;100703.25;;;1.31;100.00
19236;BME280;9752;54.270;12.470;2022-11-23T06:54:32;100722.34;;;1.34;100.00
19236;BME280;9752;54.270;12.470;2022-11-23T06:59:35;100724.00;;;1.34;100.00
19236;BME280;9752;54.270;12.470;2022-11-23T07:04:40;100711.06;;;1.41;100.00
19236;BME280;9752;54.270;12.470;2022-11-23T07:09:48;100712.25;;;1.45;100.00
19236;BME280;9752;54.270;12.470;2022-11-23T07:15:03;100711.78;;;1.49;100.00
19236;BME280;9752;54.270;12.470;2022-11-23T07:20:11;100718.81;;;1.51;100.00
19236;BME280;9752;54.270;12.470;2022-11-23T07:25:13;100720.03;;;1.55;100.00
19236;BME280;9752;54.270;12.470;2022-11-23T07:30:18;100727.84;;;1.56;100.00
19236;BME280;9752;54.270;12.470;2022-11-23T07:35:21;100715.22;;;1.58;100.00
19236;BME280;9752;54.270;12.470;2022-11-23T07:40:23;100722.81;;;1.67;100.00
19236;BME280;9752;54.270;12.470;2022-11-23T07:45:25;100735.91;;;1.70;100.00
19236;BME280;9752;54.270;12.470;2022-11-23T07:50:30;100739.22;;;1.69;100.00
19236;BME280;9752;54.270;12.470;2022-11-23T07:55:32;100738.13;;;1.75;100.00
19236;BME280;9752;54.270;12.470;2022-11-23T08:00:34;100734.53;;;1.82;100.00
19236;BME280;9752;54.270;12.470;2022-11-23T08:05:37;100733.09;;;1.94;100.00
19236;BME280;9752;54.270;12.470;2022-11-23T08:10:39;100731.56;;;1.97;100.00
19236;BME280;9752;54.270;12.470;2022-11-23T08:15:40;100728.13;;;1.96;100.00
19236;BME280;9752;54.270;12.470;2022-11-23T08:20:43;100726.31;;;1.95;100.00
19236;BME280;9752;54.270;12.470;2022-11-23T08:25:46;100736.03;;;2.08;100.00
19236;BME280;9752;54.270;12.470;2022-11-23T08:30:48;100734.63;;;2.20;100.00
19236;BME280;9752;54.270;12.470;2022-11-23T08:35:51;100743.69;;;2.36;100.00
19236;BME280;9752;54.270;12.470;2022-11-23T08:40:57;100731.16;;;2.39;100.00
19236;BME280;9752;54.270;12.470;2022-11-23T08:45:59;100739.19;;;2.52;100.00
19236;BME280;9752;54.270;12.470;2022-11-23T08:51:02;100729.06;;;2.62;100.00
19236;BME280;9752;54.270;12.470;2022-11-23T08:56:05;100719.06;;;2.65;100.00
19236;BME280;9752;54.270;12.470;2022-11-23T09:01:08;100714.91;;;2.76;100.00
19236;BME280;9752;54.270;12.470;2022-11-23T09:06:11;100708.34;;;2.88;100.00
19236;BME280;9752;54.270;12.470;2022-11-23T09:11:13;100707.00;;;3.02;100.00
19236;BME280;9752;54.270;12.470;2022-11-23T09:16:15;100705.00;;;3.19;100.00
19236;BME280;9752;54.270;12.470;2022-11-23T09:21:18;100703.97;;;3.17;100.00
19236;BME280;9752;54.270;12.470;2022-11-23T09:26:20;100701.19;;;3.24;100.00
19236;BME280;9752;54.270;12.470;2022-11-23T09:31:22;100696.66;;;3.40;100.00
19236;BME280;9752;54.270;12.470;2022-11-23T09:36:27;100695.63;;;3.48;100.00
19236;BME280;9752;54.270;12.470;2022-11-23T09:41:57;100690.34;;;3.37;100.00
19236;BME280;9752;54.270;12.470;2022-11-23T09:47:13;100681.41;;;3.52;100.00
19236;BME280;9752;54.270;12.470;2022-11-23T09:52:23;100674.97;;;3.47;100.00
19236;BME280;9752;54.270;12.470;2022-11-23T09:57:28;100673.34;;;3.47;100.00
19236;BME280;9752;54.270;12.470;2022-11-23T10:02:35;100678.50;;;3.68;100.00
19236;BME280;9752;54.270;12.470;2022-11-23T10:07:53;100670.50;;;3.55;100.00
19236;BME280;9752;54.270;12.470;2022-11-23T10:13:07;100673.63;;;3.61;100.00
19236;BME280;9752;54.270;12.470;2022-11-23T10:18:20;100674.66;;;3.73;100.00
19236;BME280;9752;54.270;12.470;2022-11-23T10:23:41;100660.81;;;3.81;100.00
19236;BME280;9752;54.270;12.470;2022-11-23T10:28:48;100662.09;;;3.76;100.00
19236;BME280;9752;54.270;12.470;2022-11-23T10:33:54;100657.88;;;3.97;100.00
19236;BME280;9752;54.270;12.470;2022-11-23T10:39:00;100655.44;;;3.88;100.00
19236;BME280;9752;54.270;12.470;2022-11-23T10:44:14;100653.38;;;4.05;100.00
19236;BME280;9752;54.270;12.470;2022-11-23T10:49:20;100660.06;;;4.13;100.00
19236;BME280;9752;54.270;12.470;2022-11-23T10:54:29;100653.00;;;4.21;100.00
19236;BME280;9752;54.270;12.470;2022-11-23T10:59:34;100654.63;;;4.30;100.00
19236;BME280;9752;54.270;12.470;2022-11-23T11:04:36;100651.06;;;4.28;100.00
19236;BME280;9752;54.270;12.470;2022-11-23T11:09:39;100638.84;;;4.36;100.00
19236;BME280;9752;54.270;12.470;2022-11-23T11:14:53;100635.22;;;4.55;100.00
19236;BME280;9752;54.270;12.470;2022-11-23T11:19:55;100626.75;;;4.45;100.00
19236;BME280;9752;54.270;12.470;2022-11-23T11:24:59;100619.50;;;4.72;100.00
19236;BME280;9752;54.270;12.470;2022-11-23T11:30:05;100612.66;;;4.83;100.00
19236;BME280;9752;54.270;12.470;2022-11-23T11:35:12;100615.56;;;4.55;100.00
19236;BME280;9752;54.270;12.470;2022-11-23T11:40:25;100606.56;;;4.71;100.00
19236;BME280;9752;54.270;12.470;2022-11-23T11:45:31;100600.94;;;4.86;100.00
19236;BME280;9752;54.270;12.470;2022-11-23T11:50:37;100586.53;;;4.88;100.00
19236;BME280;9752;54.270;12.470;2022-11-23T11:55:50;100591.91;;;4.69;100.00
19236;BME280;9752;54.270;12.470;2022-11-23T12:00:59;100597.91;;;4.70;100.00
19236;BME280;9752;54.270;12.470;2022-11-23T12:06:07;100594.06;;;4.75;100.00
19236;BME280;9752;54.270;12.470;2022-11-23T12:11:13;100585.94;;;4.81;100.00
19236;BME280;9752;54.270;12.470;2022-11-23T12:16:21;100587.44;;;4.89;100.00
19236;BME280;9752;54.270;12.470;2022-11-23T12:21:50;100585.06;;;5.24;100.00
19236;BME280;9752;54.270;12.470;2022-11-23T12:27:05;100573.94;;;5.58;100.00
19236;BME280;9752;54.270;12.470;2022-11-23T12:32:16;100575.38;;;5.54;100.00
19236;BME280;9752;54.270;12.470;2022-11-23T12:37:38;100572.44;;;5.50;100.00
19236;BME280;9752;54.270;12.470;2022-11-23T12:42:43;100555.25;;;5.60;100.00
19236;BME280;9752;54.270;12.470;2022-11-23T12:47:53;100551.38;;;5.77;100.00
19236;BME280;9752;54.270;12.470;2022-11-23T12:53:02;100547.72;;;5.52;100.00
19236;BME280;9752;54.270;12.470;2022-11-23T12:58:11;100548.94;;;5.23;100.00
19236;BME280;9752;54.270;12.470;2022-11-23T13:03:40;100559.59;;;5.05;100.00
19236;BME280;9752;54.270;12.470;2022-11-23T13:09:14;100553.56;;;4.83;100.00
19236;BME280;9752;54.270;12.470;2022-11-23T13:14:29;100552.88;;;4.63;100.00
19236;BME280;9752;54.270;12.470;2022-11-23T13:19:55;100564.63;;;4.39;100.00
19236;BME280;9752;54.270;12.470;2022-11-23T13:25:19;100557.41;;;4.45;100.00
19236;BME280;9752;54.270;12.470;2022-11-23T13:30:26;100550.63;;;4.78;100.00
19236;BME280;9752;54.270;12.470;2022-11-23T13:35:49;100558.94;;;4.86;100.00
19236;BME280;9752;54.270;12.470;2022-11-23T13:40:52;100559.50;;;4.82;100.00
19236;BME280;9752;54.270;12.470;2022-11-23T13:46:29;100570.78;;;4.84;100.00
19236;BME280;9752;54.270;12.470;2022-11-23T13:51:33;100567.13;;;4.92;100.00
19236;BME280;9752;54.270;12.470;2022-11-23T13:56:38;100568.31;;;4.85;100.00
19236;BME280;9752;54.270;12.470;2022-11-23T14:07:35;100572.94;;;4.57;100.00
19236;BME280;9752;54.270;12.470;2022-11-23T14:12:47;100574.47;;;4.55;100.00
19236;BME280;9752;54.270;12.470;2022-11-23T14:23:47;100572.78;;;4.23;100.00
19236;BME280;9752;54.270;12.470;2022-11-23T14:34:22;100586.31;;;3.80;100.00
19236;BME280;9752;54.270;12.470;2022-11-23T14:39:45;100594.22;;;3.42;100.00
19236;BME280;9752;54.270;12.470;2022-11-23T14:44:49;100600.72;;;3.28;100.00
19236;BME280;9752;54.270;12.470;2022-11-23T14:49:52;100607.53;;;3.27;100.00
19236;BME280;9752;54.270;12.470;2022-11-23T14:54:57;100606.03;;;3.00;100.00
19236;BME280;9752;54.270;12.470;2022-11-23T15:00:00;100610.63;;;2.65;100.00
19236;BME280;9752;54.270;12.470;2022-11-23T15:05:06;100612.47;;;2.47;100.00
19236;BME280;9752;54.270;12.470;2022-11-23T15:10:26;100613.38;;;2.28;100.00
19236;BME280;9752;54.270;12.470;2022-11-23T15:15:30;100620.56;;;2.13;100.00
19236;BME280;9752;54.270;12.470;2022-11-23T15:20:41;100625.97;;;2.17;100.00
19236;BME280;9752;54.270;12.470;2022-11-23T15:25:50;100633.75;;;2.18;100.00
19236;BME280;9752;54.270;12.470;2022-11-23T15:30:52;100640.69;;;2.19;100.00
19236;BME280;9752;54.270;12.470;2022-11-23T15:35:54;100653.19;;;2.16;100.00
19236;BME280;9752;54.270;12.470;2022-11-23T15:40:57;100654.94;;;2.07;100.00
19236;BME280;9752;54.270;12.470;2022-11-23T15:46:05;100661.66;;;1.87;100.00
19236;BME280;9752;54.270;12.470;2022-11-23T15:51:22;100667.88;;;1.81;100.00
19236;BME280;9752;54.270;12.470;2022-11-23T15:56:29;100669.19;;;1.86;100.00
19236;BME280;9752;54.270;12.470;2022-11-23T16:01:31;100686.09;;;2.03;100.00
19236;BME280;9752;54.270;12.470;2022-11-23T16:06:35;100695.66;;;2.14;100.00
19236;BME280;9752;54.270;12.470;2022-11-23T16:11:43;100700.56;;;2.21;100.00
19236;BME280;9752;54.270;12.470;2022-11-23T16:16:46;100705.50;;;2.28;100.00
19236;BME280;9752;54.270;12.470;2022-11-23T16:21:49;100717.19;;;2.35;100.00
19236;BME280;9752;54.270;12.470;2022-11-23T16:26:54;100721.97;;;2.41;100.00
19236;BME280;9752;54.270;12.470;2022-11-23T16:31:59;100724.81;;;2.44;100.00
19236;BME280;9752;54.270;12.470;2022-11-23T16:37:02;100730.09;;;2.45;100.00
19236;BME280;9752;54.270;12.470;2022-11-23T16:42:05;100729.53;;;2.39;100.00
19236;BME280;9752;54.270;12.470;2022-11-23T16:47:24;100736.31;;;2.11;100.00
19236;BME280;9752;54.270;12.470;2022-11-23T16:52:26;100737.13;;;1.65;100.00
19236;BME280;9752;54.270;12.470;2022-11-23T16:57:31;100731.03;;;1.45;100.00
19236;BME280;9752;54.270;12.470;2022-11-23T17:02:34;100730.31;;;1.29;100.00
19236;BME280;9752;54.270;12.470;2022-11-23T17:07:35;100731.88;;;1.18;100.00
19236;BME280;9752;54.270;12.470;2022-11-23T17:12:39;100726.75;;;1.09;100.00
19236;BME280;9752;54.270;12.470;2022-11-23T17:17:46;100731.44;;;0.87;100.00
19236;BME280;9752;54.270;12.470;2022-11-23T17:22:48;100731.28;;;0.77;100.00
19236;BME280;9752;54.270;12.470;2022-11-23T17:27:52;100731.59;;;0.71;100.00
19236;BME280;9752;54.270;12.470;2022-11-23T17:32:54;100737.28;;;0.77;100.00
19236;BME280;9752;54.270;12.470;2022-11-23T17:37:55;100728.28;;;0.81;100.00
19236;BME280;9752;54.270;12.470;2022-11-23T17:42:58;100736.09;;;0.83;100.00
19236;BME280;9752;54.270;12.470;2022-11-23T17:48:00;100741.19;;;0.74;100.00
19236;BME280;9752;54.270;12.470;2022-11-23T17:53:02;100759.22;;;1.02;100.00
19236;BME280;9752;54.270;12.470;2022-11-23T17:58:05;100763.84;;;1.32;100.00
19236;BME280;9752;54.270;12.470;2022-11-23T18:03:07;100772.97;;;1.47;100.00
19236;BME280;9752;54.270;12.470;2022-11-23T18:08:09;100779.28;;;1.60;100.00
19236;BME280;9752;54.270;12.470;2022-11-23T18:13:12;100779.84;;;1.66;100.00
19236;BME280;9752;54.270;12.470;2022-11-23T18:18:14;100794.88;;;1.71;100.00
19236;BME280;9752;54.270;12.470;2022-11-23T18:23:15;100791.22;;;1.78;100.00
19236;BME280;9752;54.270;12.470;2022-11-23T18:28:18;100813.91;;;1.84;100.00
19236;BME280;9752;54.270;12.470;2022-11-23T18:33:21;100822.03;;;1.88;100.00
19236;BME280;9752;54.270;12.470;2022-11-23T18:38:23;100831.81;;;1.92;100.00
19236;BME280;9752;54.270;12.470;2022-11-23T18:43:26;100840.81;;;1.98;100.00
19236;BME280;9752;54.270;12.470;2022-11-23T18:48:28;100840.63;;;2.05;100.00
19236;BME280;9752;54.270;12.470;2022-11-23T18:53:31;100847.84;;;2.09;100.00
19236;BME280;9752;54.270;12.470;2022-11-23T18:58:35;100859.88;;;2.10;100.00
19236;BME280;9752;54.270;12.470;2022-11-23T19:03:38;100873.13;;;2.14;100.00
19236;BME280;9752;54.270;12.470;2022-11-23T19:08:42;100878.25;;;2.06;100.00
19236;BME280;9752;54.270;12.470;2022-11-23T19:13:47;100871.19;;;2.03;100.00
19236;BME280;9752;54.270;12.470;2022-11-23T19:18:52;100882.94;;;2.01;100.00
19236;BME280;9752;54.270;12.470;2022-11-23T19:23:55;100882.50;;;1.97;100.00
19236;BME280;9752;54.270;12.470;2022-11-23T19:28:59;100889.22;;;2.05;100.00
19236;BME280;9752;54.270;12.470;2022-11-23T19:34:03;100887.13;;;2.01;100.00
19236;BME280;9752;54.270;12.470;2022-11-23T19:39:06;100886.66;;;2.05;100.00
19236;BME280;9752;54.270;12.470;2022-11-23T19:44:10;100886.81;;;2.06;100.00
19236;BME280;9752;54.270;12.470;2022-11-23T19:49:12;100888.91;;;2.10;100.00
19236;BME280;9752;54.270;12.470;2022-11-23T19:54:14;100890.09;;;2.14;100.00
19236;BME280;9752;54.270;12.470;2022-11-23T19:59:17;100880.81;;;2.14;100.00
19236;BME280;9752;54.270;12.470;2022-11-23T20:04:18;100889.53;;;2.17;100.00
19236;BME280;9752;54.270;12.470;2022-11-23T20:09:20;100888.59;;;2.16;100.00
19236;BME280;9752;54.270;12.470;2022-11-23T20:14:24;100892.19;;;2.18;100.00
19236;BME280;9752;54.270;12.470;2022-11-23T20:19:26;100896.09;;;2.23;100.00
19236;BME280;9752;54.270;12.470;2022-11-23T20:24:29;100901.22;;;2.23;100.00
19236;BME280;9752;54.270;12.470;2022-11-23T20:29:32;100904.34;;;2.29;100.00
19236;BME280;9752;54.270;12.470;2022-11-23T20:34:33;100903.91;;;2.33;100.00
19236;BME280;9752;54.270;12.470;2022-11-23T20:39:35;100903.44;;;2.38;100.00
19236;BME280;9752;54.270;12.470;2022-11-23T20:44:38;100913.22;;;2.42;100.00
19236;BME280;9752;54.270;12.470;2022-11-23T20:49:40;100917.84;;;2.46;100.00
19236;BME280;9752;54.270;12.470;2022-11-23T20:54:42;100917.84;;;2.46;100.00
19236;BME280;9752;54.270;12.470;2022-11-23T20:59:45;100924.78;;;2.47;100.00
19236;BME280;9752;54.270;12.470;2022-11-23T21:04:46;100935.44;;;2.51;100.00
19236;BME280;9752;54.270;12.470;2022-11-23T21:09:48;100933.94;;;2.53;100.00
19236;BME280;9752;54.270;12.470;2022-11-23T21:14:51;100936.16;;;2.59;100.00
19236;BME280;9752;54.270;12.470;2022-11-23T21:19:53;100933.91;;;2.62;100.00
19236;BME280;9752;54.270;12.470;2022-11-23T21:24:54;100935.53;;;2.62;100.00
19236;BME280;9752;54.270;12.470;2022-11-23T21:29:58;100946.53;;;2.69;100.00
19236;BME280;9752;54.270;12.470;2022-11-23T21:35:00;100952.41;;;2.68;100.00
19236;BME280;9752;54.270;12.470;2022-11-23T21:40:02;100949.84;;;2.68;100.00
19236;BME280;9752;54.270;12.470;2022-11-23T21:45:07;100958.88;;;2.73;100.00
19236;BME280;9752;54.270;12.470;2022-11-23T21:50:09;100958.88;;;2.73;100.00
19236;BME280;9752;54.270;12.470;2022-11-23T21:55:11;100966.06;;;2.78;100.00
19236;BME280;9752;54.270;12.470;2022-11-23T22:00:16;100971.66;;;2.73;100.00
19236;BME280;9752;54.270;12.470;2022-11-23T22:05:18;100969.69;;;2.71;100.00
19236;BME280;9752;54.270;12.470;2022-11-23T22:10:20;100966.81;;;2.77;100.00
19236;BME280;9752;54.270;12.470;2022-11-23T22:15:23;100957.03;;;2.72;100.00
19236;BME280;9752;54.270;12.470;2022-11-23T22:20:24;100949.50;;;2.74;100.00
19236;BME280;9752;54.270;12.470;2022-11-23T22:25:26;100954.78;;;2.76;100.00
19236;BME280;9752;54.270;12.470;2022-11-23T22:30:29;100959.59;;;2.72;100.00
19236;BME280;9752;54.270;12.470;2022-11-23T22:35:31;100963.22;;;2.74;100.00
19236;BME280;9752;54.270;12.470;2022-11-23T22:40:33;100965.50;;;2.71;100.00
19236;BME280;9752;54.270;12.470;2022-11-23T22:45:36;100971.66;;;2.73;100.00
19236;BME280;9752;54.270;12.470;2022-11-23T22:50:38;100967.75;;;2.68;100.00
19236;BME280;9752;54.270;12.470;2022-11-23T22:55:40;100970.19;;;2.67;100.00
19236;BME280;9752;54.270;12.470;2022-11-23T23:00:43;100979.06;;;2.70;100.00
19236;BME280;9752;54.270;12.470;2022-11-23T23:05:52;100973.47;;;2.74;100.00
19236;BME280;9752;54.270;12.470;2022-11-23T23:10:54;100969.69;;;2.80;100.00
19236;BME280;9752;54.270;12.470;2022-11-23T23:16:00;100971.78;;;2.75;100.00
19236;BME280;9752;54.270;12.470;2022-11-23T23:21:03;100971.66;;;2.73;100.00
19236;BME280;9752;54.270;12.470;2022-11-23T23:26:06;100968.63;;;2.78;100.00
19236;BME280;9752;54.270;12.470;2022-11-23T23:31:10;100981.44;;;2.78;100.00
19236;BME280;9752;54.270;12.470;2022-11-23T23:36:14;100971.47;;;2.81;100.00
19236;BME280;9752;54.270;12.470;2022-11-23T23:41:16;100983.38;;;2.80;100.00
19236;BME280;9752;54.270;12.470;2022-11-23T23:46:20;100985.78;;;2.79;100.00
19236;BME280;9752;54.270;12.470;2022-11-23T23:51:22;100971.63;;;2.82;100.00
19236;BME280;9752;54.270;12.470;2022-11-23T23:56:26;100979.94;;;2.80;100.00
